Date,TemperatureHighF,TemperatureAvgF,TemperatureLowF,DewpointHighF,DewpointAvgF,DewpointLowF,HumidityHigh,HumidityAvg,HumidityLow,PressureMaxIn,PressureMinIn,WindSpeedMaxMPH,WindSpeedAvgMPH,GustSpeedMaxMPH,PrecipitationSumIn
2013-1-6,51,50,49,51,50,49,100,99,97,30.98,30.88,12,8,17,0.00
2013-1-7,52,52,52,52,52,52,99,99,99,30.68,30.66,8,7,8,0.35
2013-1-8,53,38,33,52,38,32,99,99,99,30.92,30.26,10,2,14,0.00
2013-1-9,33,32,32,32,32,32,99,99,99,30.27,30.26,1,0,2,0.00
2013-1-11,46,40,38,45,40,38,99,99,99,29.88,29.83,2,1,2,0.01
2013-1-12,38,36,36,37,36,34,100,97,94,30.04,29.98,4,3,5,0.00
2013-1-13,38,36,34,38,35,34,99,99,99,30.17,30.11,5,3,6,0.08
2013-1-14,35,35,33,35,34,33,99,99,99,30.12,29.91,8,4,9,0.07
2013-1-15,29,28,28,28,28,28,99,99,99,29.96,29.94,1,0,2,0.00
2013-1-18,43,37,28,43,37,-15,100,92,10,30.15,29.86,100,6,100,0.58
2013-1-19,42,36,33,39,36,30,99,99,99,30.25,29.93,8,2,8,0.07
2013-1-20,41,35,34,40,34,-16,100,96,10,30.24,30.03,51,2,51,0.05
2013-1-21,57,34,30,38,34,10,100,98,35,30.04,29.99,37,1,37,0.05
2013-1-22,40,29,24,40,29,24,100,99,96,30.41,30.02,4,1,4,0.00
2013-1-23,39,34,26,38,33,26,100,98,90,30.52,30.37,52,2,52,0.01
2013-1-24,43,38,34,42,37,33,100,97,88,30.65,30.52,12,3,12,0.00
2013-1-25,93,45,40,61,43,21,100,96,33,30.56,30.00,21,8,21,0.60
2013-1-26,54,42,36,54,40,-15,100,97,10,30.37,29.63,25,7,25,0.01
2013-1-27,52,36,32,50,39,-9,100,37,10,30.13,29.64,30,5,30,0.00
2013-1-28,53,42,32,51,39,-7,100,80,10,30.18,29.72,32,12,32,0.00
2013-1-29,76,50,32,74,36,-15,100,66,10,30.10,29.79,118,30,118,0.08
2013-1-30,54,44,40,49,42,33,100,94,82,30.49,29.99,36,13,36,0.06
2013-1-31,51,43,34,47,41,34,100,92,80,30.41,30.16,36,15,37,0.14
2013-2-1,48,40,33,45,38,31,100,92,78,30.58,30.11,21,8,21,0.01
2013-2-2,42,31,-25,40,28,-63,100,89,10,30.94,30.58,7,2,7,0.08
2013-2-3,60,47,32,60,46,27,99,96,39,30.83,30.50,21,10,21,0.14
2013-2-4,111,42,22,76,22,-26,100,61,10,30.60,29.91,93,16,93,0.22
2013-2-5,47,40,31,44,38,31,100,93,83,29.80,29.47,24,12,24,0.02
2013-2-6,46,37,30,36,33,29,100,85,66,30.33,29.79,14,5,14,0.00
2013-2-7,45,36,29,44,36,29,99,99,99,30.33,29.95,27,4,27,0.22
2013-2-8,49,41,36,48,41,36,100,99,96,30.33,30.22,9,3,9,0.00
2013-2-9,54,44,40,54,44,40,100,99,97,30.24,29.70,11,3,11,0.11
2013-2-10,45,41,39,45,41,39,99,99,99,29.70,29.25,10,2,10,0.56
2013-2-11,41,39,38,41,38,37,100,98,95,29.85,29.28,8,2,8,0.02
2013-2-12,45,40,37,43,40,37,100,99,96,30.01,29.84,7,2,8,0.02
2013-2-13,62,47,36,60,46,28,99,99,99,29.99,29.69,20,8,20,0.38
2013-2-14,52,44,38,48,42,37,100,94,77,30.08,29.80,17,7,17,0.01
2013-2-15,55,41,33,48,39,32,100,95,63,30.17,30.08,8,2,8,0.01
2013-2-16,54,48,40,54,46,-3,100,95,10,30.13,30.05,55,6,55,0.00
2013-2-17,54,46,39,44,40,34,94,82,61,30.06,29.96,16,5,16,0.00
2013-2-18,55,42,36,40,35,32,94,80,51,30.11,29.97,10,3,10,0.00
2013-2-19,54,38,28,46,35,28,100,90,61,30.12,30.04,7,2,7,0.00
2013-2-20,50,39,28,46,35,28,100,86,65,30.16,30.07,13,3,13,0.00
2013-2-21,42,36,31,35,29,26,85,76,60,30.21,30.15,13,5,13,0.00
2013-2-22,37,35,33,29,26,24,79,70,63,30.28,30.17,9,3,9,0.00
2013-2-23,38,34,33,32,30,26,89,82,72,30.37,30.26,7,2,7,0.00
2013-2-24,41,35,28,35,31,24,96,85,76,30.50,30.35,5,1,6,0.00
2013-2-25,51,36,26,41,32,-19,100,85,57,30.61,30.48,8,2,8,0.00
2013-2-26,45,39,27,40,37,27,100,92,76,30.68,30.56,11,3,11,0.00
2013-2-27,50,41,35,42,39,34,100,91,72,30.70,30.63,9,3,9,0.00
2013-2-28,50,38,30,45,37,30,100,97,80,30.64,30.52,7,2,7,0.00
2013-3-1,53,41,28,50,37,28,100,89,56,30.55,30.50,10,2,10,0.00
2013-3-2,49,36,24,42,34,23,100,93,72,30.51,30.31,6,1,6,0.00
2013-3-3,55,40,28,42,36,27,100,88,52,30.33,30.07,8,1,8,0.00
2013-3-4,46,37,28,43,34,27,100,88,73,30.08,29.74,7,1,7,0.00
2013-3-5,52,40,26,43,37,26,100,90,64,29.75,29.57,12,5,12,0.00
2013-3-6,54,45,42,48,44,42,100,99,99,29.58,29.46,11,5,11,0.26
2013-3-7,59,46,44,59,46,42,99,99,99,29.46,29.29,13,7,13,0.28
2013-3-8,54,48,45,53,48,45,100,99,95,29.51,29.27,13,5,13,0.05
2013-3-9,49,44,40,49,44,37,99,99,99,29.71,29.49,17,7,17,0.02
2013-3-10,43,38,33,40,32,18,100,80,53,29.96,29.70,23,11,23,0.00
2013-3-11,39,32,27,32,26,16,100,80,50,30.11,29.95,21,8,21,0.01
2013-3-12,46,34,25,34,27,-23,100,74,10,30.14,30.01,11,3,11,0.00
2013-3-13,52,37,28,42,34,28,100,88,60,30.11,30.00,11,3,11,0.01
2013-3-14,49,38,26,45,36,26,100,94,80,30.12,29.74,16,5,16,0.01
2013-3-15,53,42,30,45,39,29,100,89,58,29.74,29.37,18,7,18,0.05
2013-3-16,58,39,28,46,33,28,100,82,39,29.37,29.29,10,2,10,0.00
2013-3-17,48,36,28,48,36,28,100,99,95,29.33,29.13,11,3,11,0.14
2013-3-18,49,38,34,44,37,34,100,97,83,29.48,29.20,10,4,10,0.15
2013-3-19,44,36,32,44,35,32,100,98,91,29.55,29.47,8,3,9,0.24
2013-3-20,48,38,32,48,37,32,100,95,76,29.90,29.55,6,2,6,0.00
2013-3-21,46,40,34,44,38,33,100,93,77,29.90,29.56,24,9,24,0.07
2013-3-22,52,41,32,52,41,29,100,99,96,29.68,29.47,19,10,19,0.21
2013-3-23,41,38,32,41,37,32,100,95,87,29.93,29.67,17,7,17,0.00
2013-3-24,38,35,33,34,30,24,92,81,71,30.07,29.92,16,8,16,0.00
2013-3-25,41,36,33,32,27,25,84,69,55,30.12,30.07,16,8,16,0.00
2013-3-26,42,34,32,39,31,25,97,88,68,30.12,30.04,16,5,16,0.02
2013-3-27,42,34,28,40,31,-18,100,92,10,30.05,30.00,18,3,18,0.05
2013-3-28,47,36,28,37,30,26,100,81,52,30.02,29.92,13,4,13,0.02
2013-3-29,46,37,33,30,26,24,75,63,45,29.93,29.84,12,5,12,0.00
2013-3-30,51,37,26,32,25,21,86,63,37,29.97,29.87,11,2,11,0.00
2013-3-31,44,37,28,32,28,24,85,71,57,29.95,29.83,14,4,14,0.00
2013-4-1,42,37,32,29,28,26,82,69,57,29.96,29.82,15,6,15,0.00
2013-4-2,53,40,29,35,28,23,84,62,39,30.17,29.96,11,5,11,0.00
2013-4-3,55,40,27,37,28,20,96,64,34,30.25,30.17,13,4,13,0.00
2013-4-4,53,40,30,37,28,24,95,66,39,30.25,30.20,14,4,14,0.00
2013-4-5,56,40,27,41,30,23,95,69,39,30.32,30.21,10,4,10,0.00
2013-4-6,61,41,22,40,29,20,100,67,32,30.37,30.23,13,2,13,0.00
2013-4-7,52,40,32,38,33,29,94,76,47,30.24,29.82,14,4,14,0.00
2013-4-8,53,43,35,38,34,27,96,73,46,29.82,29.51,15,6,15,0.00
2013-4-9,48,40,36,37,35,33,96,83,62,29.64,29.48,15,6,15,0.00
2013-4-10,58,44,37,50,42,36,100,93,64,29.64,29.49,8,3,8,0.00
2013-4-11,53,44,37,50,43,37,99,98,87,29.49,29.28,8,2,8,0.38
2013-4-12,64,49,38,50,44,38,100,86,57,29.71,29.30,11,4,11,0.05
2013-4-13,56,46,35,54,45,35,100,96,67,29.71,29.40,25,5,25,0.07
2013-4-14,70,53,46,70,51,45,100,93,75,29.55,29.41,31,12,31,0.41
2013-4-15,67,54,48,50,48,44,100,81,54,29.82,29.49,21,11,21,0.07
2013-4-16,61,51,40,50,42,34,100,71,43,29.94,29.48,30,14,30,0.01
2013-4-17,57,47,41,55,45,38,100,92,83,29.92,29.24,36,6,36,0.22
2013-4-18,57,49,42,50,46,41,100,88,68,30.15,29.31,31,15,32,0.15
2013-4-19,63,47,36,46,41,36,99,80,44,30.50,30.15,10,3,10,0.00
2013-4-20,63,48,35,48,42,34,100,79,49,30.50,30.23,20,6,20,0.00
2013-4-21,59,48,42,54,45,34,100,88,59,30.23,29.97,28,8,28,0.19
2013-4-22,63,50,43,58,48,42,100,94,72,30.00,29.84,23,11,24,0.02
2013-4-23,67,54,46,54,50,46,100,85,60,30.17,29.98,18,8,18,0.00
2013-4-24,60,53,45,58,52,45,100,96,79,30.28,30.06,18,6,18,0.17
2013-4-25,62,49,41,55,44,38,100,86,52,30.25,30.13,19,4,19,0.24
2013-4-26,54,44,34,47,38,31,100,80,52,30.21,30.08,21,6,22,0.02
2013-4-27,64,47,36,42,37,32,100,70,35,30.22,30.13,14,4,14,0.00
2013-4-28,58,47,39,51,42,36,100,84,62,30.15,29.88,17,9,18,0.02
2013-4-29,61,47,37,48,39,33,100,76,46,30.30,29.94,20,9,20,0.00
2013-4-30,65,48,32,46,38,32,100,71,40,30.39,30.29,23,2,23,0.00
2013-5-1,67,50,39,52,41,31,100,74,43,30.34,30.27,12,4,12,0.00
2013-5-2,68,52,37,50,44,37,100,77,49,30.33,30.16,17,5,17,0.00
2013-5-3,60,53,48,53,49,46,100,85,67,30.17,29.89,26,11,26,0.08
2013-5-4,65,53,42,54,47,42,100,83,54,30.03,29.84,21,7,21,0.01
2013-5-5,69,57,51,55,52,48,100,85,54,30.12,30.02,0,0,0,0.00
2013-5-6,74,57,45,59,52,44,100,84,55,30.11,30.03,16,2,16,0.01
2013-5-7,78,57,41,57,49,41,100,77,45,30.06,29.68,14,3,14,0.01
2013-5-8,66,54,46,59,51,42,100,91,61,29.69,29.33,30,10,30,0.00
2013-5-9,56,48,44,54,47,41,100,95,84,29.61,29.20,27,13,27,0.00
2013-5-10,61,51,44,56,46,39,100,86,50,29.75,29.61,27,11,27,0.00
2013-5-11,56,48,42,51,44,40,100,88,63,30.00,29.71,27,10,27,0.00
2013-5-12,59,49,40,57,48,40,100,96,84,30.01,29.81,25,9,25,0.00
2013-5-13,65,47,15,47,30,-32,100,66,10,29.88,29.75,108,26,108,2.14
2013-5-14,64,49,37,48,42,37,100,81,44,29.75,29.40,15,7,15,0.00
2013-5-15,59,47,39,50,41,35,100,82,53,29.58,29.46,21,7,21,0.00
2013-5-16,64,47,36,53,43,34,100,88,57,29.66,29.49,9,2,9,0.00
2013-5-17,68,50,35,50,43,35,100,78,44,29.96,29.65,13,3,13,0.00
2013-5-18,56,49,45,51,47,41,100,93,76,29.96,29.75,13,4,13,0.00
2013-5-19,77,58,48,59,52,48,100,81,49,30.08,29.80,8,2,8,0.00
2013-5-20,59,55,50,56,53,49,100,94,83,30.19,30.05,14,5,14,0.00
2013-5-21,71,56,48,55,50,47,100,82,54,30.24,30.17,16,6,16,0.00
2013-5-22,61,52,45,50,43,36,100,73,50,30.31,30.23,22,7,22,0.00
2013-5-23,59,48,40,43,39,34,95,72,43,30.25,30.12,24,8,24,0.00
2013-5-24,65,50,40,45,40,37,88,69,43,30.25,30.08,17,6,21,0.00
2013-5-25,81,58,38,52,44,36,100,66,30,30.26,30.17,11,1,11,0.00
2013-5-26,74,59,50,63,52,49,100,82,47,30.21,29.78,10,0,11,0.07
2013-5-27,70,54,44,55,48,41,100,85,42,29.79,29.45,0,0,0,0.00
2013-5-28,53,49,34,49,46,-17,100,88,10,29.72,29.52,0,0,0,2.22
2013-5-29,84,48,21,55,23,-27,100,52,10,30.05,29.71,3,0,3,0.00
2013-5-30,86,61,13,57,50,-1,93,69,10,30.19,30.03,6,0,6,0.00
2013-5-31,65,54,44,57,47,38,100,78,44,30.33,30.18,2,0,2,0.07
2013-6-1,75,54,40,59,47,37,100,78,47,30.44,30.32,4,0,4,0.00
2013-6-2,73,58,50,55,50,44,97,77,51,30.50,30.42,0,0,0,0.01
2013-6-3,82,61,51,67,56,48,100,85,56,30.54,30.47,2,0,2,0.05
2013-6-4,105,66,48,69,54,43,100,74,25,30.49,30.30,0,0,0,0.00
2013-6-5,104,66,48,65,53,44,100,70,26,30.30,30.15,0,0,0,0.00
2013-6-6,103,65,47,68,54,47,100,73,30,30.29,30.17,0,0,0,0.00
2013-6-7,110,69,51,71,56,45,100,71,27,30.32,30.27,0,0,0,0.00
2013-6-8,110,68,46,72,54,43,96,67,27,30.32,30.13,0,0,0,0.02
2013-6-9,108,62,47,66,50,42,94,69,22,30.14,29.96,6,0,6,0.01
2013-6-10,69,58,46,55,50,43,100,76,52,29.98,29.83,0,0,4,0.09
2013-6-11,67,57,51,67,57,51,100,99,99,29.83,29.66,0,0,0,0.15
2013-6-12,66,57,52,60,55,52,100,93,67,29.74,29.56,0,0,0,0.18
2013-6-13,63,55,46,60,52,45,100,91,69,29.93,29.56,8,0,8,0.25
2013-6-14,66,55,46,60,52,45,100,93,70,29.93,29.42,3,0,3,0.04
2013-6-15,65,55,44,58,51,43,100,89,61,29.76,29.52,7,1,7,0.05
2013-6-16,68,57,51,59,54,50,100,90,58,29.97,29.75,2,0,2,0.07
2013-6-17,61,55,49,60,54,49,100,98,87,30.07,29.96,2,0,2,0.01
2013-6-18,73,59,44,65,54,44,100,86,59,30.04,29.98,3,1,3,0.00
2013-6-19,70,61,51,58,53,49,100,78,56,30.11,30.04,3,1,3,0.00
2013-6-20,72,62,50,60,56,49,100,82,60,30.07,29.81,2,0,2,0.00
2013-6-21,69,60,53,60,56,52,100,86,56,29.89,29.59,3,1,3,0.00
2013-6-22,64,56,53,61,55,53,100,96,75,29.64,29.44,12,1,12,0.24
2013-6-23,59,55,50,55,52,45,100,89,68,30.21,29.64,8,2,8,0.01
2013-6-24,65,56,47,55,50,46,100,81,56,30.33,30.20,2,0,2,0.00
2013-6-25,71,60,47,59,55,47,100,85,58,30.48,30.32,2,0,2,0.00
2013-6-26,70,61,52,57,53,50,100,76,55,30.55,30.48,2,0,2,0.00
2013-6-27,67,58,49,67,57,48,100,98,81,30.53,30.30,3,0,3,0.15
2013-6-28,65,60,53,64,59,52,100,98,90,30.31,30.14,5,2,6,0.01
2013-6-29,73,60,50,70,58,50,100,95,79,30.28,30.23,4,1,4,0.00
2013-6-30,66,60,53,64,56,48,100,87,68,30.27,30.02,11,1,11,0.02
2013-7-1,67,57,50,56,52,49,100,83,57,30.06,29.94,3,1,3,0.00
2013-7-2,63,56,52,62,56,51,100,98,89,29.94,29.48,3,0,3,0.12
2013-7-3,67,60,53,65,58,53,100,95,79,29.88,29.56,3,1,3,0.00
2013-7-4,64,61,60,64,61,60,100,99,94,29.93,29.83,6,1,6,0.01
2013-7-6,78,67,53,67,60,52,100,80,58,30.49,30.36,3,1,3,0.00
2013-7-7,74,67,61,68,65,60,100,93,76,30.62,30.49,2,0,2,0.00
2013-7-8,79,69,58,66,62,58,100,81,56,30.62,30.51,2,0,2,0.00
2013-7-9,82,72,58,71,66,58,100,80,62,30.52,30.38,2,0,2,0.00
2013-7-10,79,68,54,71,63,54,100,85,62,30.40,30.33,2,0,2,0.00
2013-7-11,80,68,56,68,62,56,100,84,64,30.36,30.30,5,0,5,0.02
2013-7-12,92,72,54,75,63,54,99,77,47,30.32,30.26,2,0,2,0.00
2013-7-13,80,70,59,70,65,58,100,85,65,30.37,30.29,2,0,2,0.00
2013-7-14,86,68,56,72,61,56,100,81,47,30.38,30.25,2,0,2,0.00
2013-7-15,71,63,55,63,58,54,100,85,65,30.32,30.27,2,1,2,0.00
2013-7-16,76,68,59,65,61,58,100,82,60,30.30,30.26,2,0,2,0.01
2013-7-17,80,69,60,66,62,57,100,79,54,30.38,30.29,2,0,2,0.00
2013-7-18,80,69,55,69,61,54,100,77,54,30.41,30.36,2,0,2,0.00
2013-7-19,83,71,54,73,65,54,100,82,58,30.40,30.28,2,0,2,0.00
2013-7-20,79,70,61,73,65,60,100,85,68,30.30,30.20,2,0,2,0.00
2013-7-21,72,65,59,65,62,59,100,90,72,30.21,30.05,4,0,4,0.00
2013-7-22,78,68,60,70,66,60,100,91,74,30.06,29.92,2,0,2,0.01
2013-7-23,77,67,62,71,65,60,100,91,63,29.93,29.83,8,0,8,0.00
2013-7-24,75,67,60,72,62,59,100,86,61,29.87,29.80,5,0,5,0.00
2013-7-25,75,65,60,75,64,59,100,96,72,29.85,29.78,9,0,9,0.00
2013-7-26,81,65,55,73,62,55,100,88,65,29.88,29.82,7,0,7,0.00
2013-7-27,79,63,52,74,60,52,100,92,71,29.85,29.64,2,0,2,0.01
2013-7-28,75,64,54,68,60,54,100,90,67,29.65,29.55,2,0,2,0.13
2013-7-29,73,63,57,69,60,54,100,92,69,29.87,29.60,3,0,3,0.25
2013-7-30,71,62,52,63,57,52,100,85,65,29.92,29.80,2,0,2,0.01
2013-7-31,69,60,55,69,60,55,100,99,88,29.92,29.68,1,0,1,0.24
2013-8-1,73,66,64,72,66,64,100,98,88,29.73,29.54,1,0,1,0.27
2013-8-2,71,63,55,66,61,55,100,91,70,29.68,29.50,2,0,2,0.12
2013-8-3,70,59,53,63,58,53,100,95,68,29.94,29.67,2,0,2,0.38
2013-8-4,71,62,51,67,60,51,100,93,75,29.94,29.85,0,0,0,0.05
2013-8-5,67,61,56,60,56,50,100,86,63,30.00,29.82,0,0,0,0.02
2013-8-6,69,61,55,65,58,54,100,89,69,30.01,29.92,0,0,0,0.01
2013-8-7,72,63,51,66,56,51,100,81,50,30.09,29.94,0,0,0,0.00
2013-8-8,74,64,56,64,59,55,100,87,56,30.08,29.92,0,0,0,0.06
2013-8-9,67,60,56,59,56,53,100,88,68,30.25,29.97,0,0,0,0.00
2013-8-10,70,62,55,62,57,52,100,86,67,30.25,30.09,0,0,0,0.00
2013-8-11,68,59,51,60,55,51,100,87,60,30.11,30.03,1,0,1,0.00
2013-8-12,65,58,49,58,52,47,100,83,55,30.18,30.04,4,0,4,0.00
2013-8-13,68,60,52,67,59,49,100,96,83,30.22,30.15,0,0,0,0.09
2013-8-14,73,64,56,73,63,56,100,96,83,30.18,30.00,2,0,2,0.06
2013-8-15,72,64,60,72,64,60,100,99,93,30.01,29.80,0,0,0,0.53
2013-8-16,69,61,53,66,59,52,100,93,77,29.97,29.89,2,0,2,0.01
2013-8-17,72,62,54,70,62,54,100,99,89,29.90,29.52,3,0,3,0.20
2013-8-18,66,58,52,61,55,51,100,92,70,29.94,29.65,2,0,2,0.00
2013-8-19,69,59,50,63,56,50,100,91,64,30.29,29.94,2,0,2,0.01
2013-8-20,70,63,56,63,59,56,100,88,66,30.31,30.16,0,0,0,0.00
2013-8-21,71,65,60,66,62,60,100,92,79,30.17,30.09,2,0,2,0.00
2013-8-22,72,62,56,66,60,55,100,94,70,30.15,29.95,0,0,0,0.01
2013-8-23,63,60,55,63,59,55,99,99,99,30.00,29.88,2,0,2,0.20
2013-8-24,64,56,46,62,55,45,100,95,75,30.06,29.96,0,0,0,0.09
2013-8-25,67,60,52,64,59,52,100,95,79,30.22,29.97,1,0,1,0.04
2013-8-26,67,59,51,64,57,51,100,95,82,30.22,30.15,0,0,0,0.01
2013-8-27,69,62,57,67,61,57,100,97,85,30.28,30.14,1,0,1,0.02
2013-8-28,68,60,52,60,56,52,100,89,72,30.29,30.16,0,0,1,0.01
2013-8-29,70,63,56,67,61,56,100,95,82,30.18,30.11,2,0,2,0.02
2013-8-30,69,61,47,68,59,47,100,95,80,30.29,30.00,2,0,2,0.04
2013-8-31,64,55,45,54,50,44,100,85,63,30.50,30.29,2,0,2,0.00
2013-9-1,64,56,47,58,53,47,100,90,75,30.50,30.37,2,0,2,0.00
2013-9-2,69,62,56,69,61,54,100,98,93,30.39,30.32,1,0,1,0.00
2013-9-3,71,62,54,65,58,53,100,87,60,30.37,30.22,0,0,0,0.00
2013-9-4,72,61,50,61,56,49,100,85,54,30.23,29.95,0,0,0,0.00
2013-9-5,63,56,45,57,51,43,99,84,56,30.01,29.93,1,0,1,0.00
2013-9-6,63,50,38,51,45,38,100,83,48,29.96,29.87,2,0,2,0.00
2013-9-7,52,49,46,52,48,45,100,99,94,29.93,29.85,2,0,2,0.40
2013-9-8,60,52,44,57,50,44,100,95,81,30.00,29.88,2,1,2,0.07
2013-9-9,64,52,39,57,49,39,100,90,64,30.28,29.99,2,0,2,0.00
2013-9-10,62,54,45,58,52,45,100,92,71,30.38,30.28,2,0,2,0.00
2013-9-11,63,58,53,62,58,52,99,99,99,30.38,30.17,2,0,2,0.01
2013-9-12,65,61,51,65,60,51,99,99,99,30.17,30.01,2,0,2,0.00
2013-9-13,57,52,46,54,50,46,100,94,77,30.16,30.10,1,0,1,0.00
2013-9-14,60,51,42,55,47,42,99,87,58,30.17,30.04,0,0,0,0.00
2013-9-15,61,54,46,61,52,43,100,94,65,30.05,29.50,9,1,9,0.04
2013-9-16,56,48,44,56,46,43,100,90,73,29.67,29.58,12,0,12,0.06
2013-9-17,56,51,47,56,50,46,100,97,91,29.66,29.38,2,0,2,0.40
2013-9-18,56,50,46,54,48,44,100,94,75,29.90,29.51,6,0,6,0.01
2013-9-19,62,54,47,58,52,47,100,92,77,29.97,29.60,6,0,7,0.14
2013-9-20,62,54,48,55,52,46,100,91,70,30.09,29.96,0,0,0,0.00
2013-9-21,72,63,55,70,62,55,100,96,82,30.24,30.05,3,0,3,0.00
2013-9-22,71,63,56,65,61,55,100,92,74,30.33,30.24,4,0,4,0.01
2013-9-23,73,64,55,69,62,55,100,95,81,30.30,30.08,0,0,0,0.00
2013-9-24,74,62,57,66,60,57,100,96,73,30.08,29.91,4,0,4,0.15
2013-9-25,66,60,57,65,59,56,100,99,91,29.93,29.86,0,0,0,0.00
2013-9-26,63,59,57,62,59,56,99,99,99,29.99,29.91,0,0,0,0.00
2013-9-27,68,60,54,65,59,54,100,97,86,30.00,29.85,0,0,0,0.00
2013-9-28,64,58,55,62,58,54,100,98,90,29.85,29.73,2,0,2,0.00
2013-9-29,64,58,55,59,56,52,100,92,71,29.75,29.71,0,0,0,0.00
2013-9-30,63,58,54,62,58,54,100,99,91,29.72,29.63,0,0,0,0.01
2013-10-1,62,59,56,61,59,56,99,99,99,29.67,29.61,1,0,1,0.21
2013-10-2,67,62,59,66,62,58,99,99,99,29.62,29.57,0,0,0,0.07
2013-10-3,64,62,60,63,61,59,99,99,99,29.62,29.52,0,0,0,0.17
2013-10-4,62,58,52,62,58,52,99,99,99,29.96,29.55,2,0,2,0.01
2013-10-5,65,56,50,64,56,50,100,97,86,30.18,29.96,0,0,0,0.00
2013-10-6,66,60,53,66,60,53,99,99,99,30.19,30.13,0,0,0,0.01
2013-10-7,66,62,59,66,62,59,100,99,97,30.16,30.07,0,0,0,0.01
2013-10-8,61,58,52,59,57,52,100,98,90,30.33,30.11,2,0,2,0.00
2013-10-9,56,50,43,54,48,40,100,91,70,30.33,30.21,3,0,3,0.00
2013-10-10,54,45,38,46,41,38,100,86,60,30.42,30.30,2,0,2,0.00
2013-10-11,56,48,39,52,46,39,100,95,86,30.43,30.38,1,0,1,0.00
2013-10-12,56,52,50,54,51,48,100,96,85,30.39,30.19,1,0,1,0.00
2013-10-13,54,51,46,53,50,46,100,96,86,30.19,29.99,0,0,0,0.00
2013-10-14,57,50,43,53,48,42,100,91,71,29.99,29.89,1,0,1,0.00
2013-10-15,58,49,38,53,47,38,100,94,78,29.92,29.85,0,0,0,0.00
2013-10-16,56,52,49,56,52,48,100,98,90,29.87,29.55,1,0,1,0.45
2013-10-17,61,52,43,61,52,43,100,99,95,29.89,29.73,0,0,0,0.01
2013-10-18,56,55,52,56,54,51,99,99,99,29.89,29.47,0,0,0,0.14
2013-10-19,61,56,53,61,56,52,99,99,99,29.48,29.42,0,0,0,0.13
2013-10-20,58,53,49,58,53,49,99,99,99,29.55,29.28,3,0,3,0.11
2013-10-21,61,55,48,60,55,47,99,99,99,29.56,29.20,2,0,2,0.11
2013-10-22,62,58,55,62,58,54,100,99,94,29.22,29.04,1,0,1,0.00
2013-10-23,56,50,42,55,49,42,100,96,80,29.77,29.04,3,1,4,0.01
2013-10-24,60,51,40,58,50,40,100,98,88,29.84,29.61,1,0,1,0.00
2013-10-25,61,57,54,61,56,54,99,99,99,29.61,29.36,1,0,1,0.09
2013-10-26,55,51,48,55,51,48,100,99,93,29.52,29.18,2,0,2,0.07
2013-10-27,62,50,47,54,50,47,99,99,99,29.19,29.04,4,0,4,0.14
2013-10-28,54,49,46,52,48,46,100,96,81,29.61,29.01,4,0,4,0.00
2013-10-29,52,45,40,49,43,39,100,95,80,30.03,29.60,4,0,4,0.00
2013-10-30,56,48,40,55,48,40,99,99,99,30.03,29.70,4,0,4,0.00
2013-10-31,57,48,44,56,48,44,100,98,91,29.95,29.76,3,0,3,0.00
2013-11-1,53,44,36,53,44,36,100,97,84,29.78,29.59,2,0,2,0.00
2013-11-2,51,44,34,51,43,34,100,98,88,29.61,28.96,4,0,4,0.00
2013-11-3,50,43,38,47,42,38,100,96,84,29.51,29.28,0,0,0,0.00
2013-11-4,49,40,32,48,39,32,100,98,90,29.45,29.25,0,0,0,0.00
2013-11-5,50,46,44,48,45,44,100,97,88,29.43,29.18,0,0,0,0.17
2013-11-6,50,45,39,49,45,39,99,99,99,29.56,29.36,0,0,0,0.02
2013-11-7,51,42,37,50,42,37,100,98,82,29.64,29.56,0,0,0,0.13
2013-11-8,52,42,37,52,41,36,100,98,87,29.66,29.57,0,0,0,0.00
2013-11-9,50,40,34,49,40,34,99,99,96,29.75,29.58,0,0,0,0.00
2013-11-10,51,41,32,51,41,31,100,98,87,30.10,29.74,0,0,0,0.26
2013-11-11,56,53,48,56,53,48,99,99,99,30.19,29.87,0,0,0,0.02
2013-11-12,52,44,38,52,43,38,100,97,81,30.55,30.19,0,0,0,0.00
2013-11-13,49,44,38,49,43,37,100,98,91,30.55,30.10,0,0,0,0.02
2013-11-14,49,45,42,46,44,42,100,94,79,30.62,30.19,0,0,0,0.00
2013-11-15,51,47,43,51,47,42,100,99,95,30.62,30.51,0,0,0,0.00
2013-11-16,52,50,48,52,50,48,100,99,99,30.52,30.39,0,0,0,0.00
2013-11-17,53,51,49,53,51,48,99,99,99,30.40,29.96,0,0,0,0.18
2013-11-18,48,41,35,48,41,35,100,99,94,29.98,29.91,0,0,0,0.06
2013-11-19,43,36,32,43,36,32,100,99,93,30.17,29.95,0,0,0,0.00
2013-11-20,46,43,37,44,40,33,100,92,78,29.95,29.71,2,0,2,0.07
2013-11-21,42,37,31,36,33,29,100,85,75,30.15,29.88,0,0,0,0.01
2013-11-22,43,34,28,41,33,28,100,95,84,30.33,30.14,0,0,0,0.00
2013-11-23,45,38,28,45,37,28,99,99,99,30.46,30.31,0,0,0,0.00
2013-11-24,47,44,43,47,44,42,100,99,97,30.69,30.46,0,0,0,0.00
2013-11-25,45,43,41,45,42,41,100,99,94,30.80,30.68,0,0,0,0.01
2013-11-26,48,43,39,47,43,39,99,99,99,30.80,30.68,0,0,0,0.00
2013-11-27,49,46,40,49,45,40,99,99,99,30.70,30.61,0,0,0,0.00
2013-11-28,51,48,47,51,48,46,99,99,99,30.66,30.56,0,0,0,0.00
2013-11-29,47,46,42,47,45,42,100,98,91,30.56,30.40,0,0,0,0.00
2013-11-30,48,42,36,48,42,36,100,99,99,30.55,30.44,0,0,0,0.00
2013-12-1,50,46,45,50,46,44,100,99,97,30.60,30.53,0,0,0,0.00
2013-12-2,48,45,43,47,45,43,99,99,99,30.58,30.42,0,0,0,0.00
2013-12-3,48,45,42,48,45,42,99,99,99,30.43,30.26,0,0,0,0.00
2013-12-4,44,39,34,44,38,33,100,99,95,30.52,30.33,0,0,0,0.00
2013-12-5,50,44,38,50,42,37,100,94,79,30.41,30.07,3,0,3,0.04
2013-12-6,49,43,37,49,43,37,100,99,99,30.40,30.34,0,0,0,0.00
2013-12-7,48,45,42,48,45,42,99,99,99,30.35,30.13,0,0,0,0.01
2013-12-8,52,49,44,52,49,43,99,99,99,30.17,30.10,1,0,1,0.00
2013-12-9,51,48,44,51,48,44,100,99,93,30.24,30.16,0,0,0,0.00
2013-12-10,54,52,50,54,52,48,100,98,86,30.22,30.12,0,0,0,0.00
2013-12-11,53,51,50,53,50,48,100,96,92,30.23,29.99,0,0,0,0.00
2013-12-12,57,55,53,57,55,51,100,99,94,29.99,29.84,0,0,0,0.00
2013-12-13,55,49,39,55,48,38,100,95,82,30.05,29.71,0,0,0,0.00
2013-12-14,51,46,39,51,46,38,100,98,93,30.05,29.54,0,0,0,0.30
2013-12-18,44,42,38,44,41,38,100,98,94,29.13,28.85,0,0,0,1.82
2013-12-19,39,36,34,38,36,34,99,99,99,29.72,29.12,0,0,0,0.02
2013-12-20,51,44,34,51,43,34,100,99,99,29.88,29.52,0,0,0,0.09
2013-12-21,47,42,37,47,42,37,100,99,96,29.64,29.38,0,0,0,0.39
2013-12-22,39,36,34,39,36,33,99,99,99,29.69,29.46,0,0,0,0.25
2013-12-23,51,45,34,51,45,34,100,99,89,29.65,28.39,0,0,0,0.39
2013-12-24,41,38,34,39,36,-14,100,93,80,28.73,28.44,0,0,0,0.25
2013-12-25,40,35,32,39,34,31,99,99,99,29.14,28.72,0,0,0,0.00
2013-12-26,48,38,33,47,37,33,100,99,96,29.37,28.53,2,0,2,0.01